createdAt,value
2023-04-24T00:01:45.858Z,1.02
2023-04-24T00:04:15.313Z,0.60
2023-04-24T00:06:43.905Z,0.52
2023-04-24T00:09:11.251Z,0.70
2023-04-24T00:11:38.368Z,0.52
2023-04-24T00:14:05.249Z,0.70
2023-04-24T00:16:31.993Z,0.40
2023-04-24T00:18:59.378Z,0.52
2023-04-24T00:21:26.816Z,0.60
2023-04-24T00:23:54.462Z,0.73
2023-04-24T00:26:21.215Z,0.57
2023-04-24T00:28:48.084Z,0.40
2023-04-24T00:31:14.861Z,0.60
2023-04-24T00:33:41.911Z,0.68
2023-04-24T00:36:08.689Z,0.50
2023-04-24T00:38:35.463Z,0.85
2023-04-24T00:41:02.499Z,0.30
2023-04-24T00:43:29.309Z,0.57
2023-04-24T00:49:48.959Z,0.30
2023-04-24T00:52:18.737Z,0.40
2023-04-24T00:54:46.460Z,0.43
2023-04-24T00:57:16.291Z,0.57
2023-04-24T00:59:44.658Z,0.40
2023-04-24T01:02:13.033Z,0.57
2023-04-24T01:04:40.658Z,0.43
2023-04-24T01:07:11.610Z,0.65
2023-04-24T01:09:43.107Z,0.52
2023-04-24T01:12:10.541Z,0.45
2023-04-24T01:14:38.640Z,0.60
2023-04-24T01:17:05.505Z,0.50
2023-04-24T01:19:32.350Z,0.45
2023-04-24T01:22:03.003Z,0.70
2023-04-24T01:24:30.535Z,0.50
2023-04-24T01:26:58.014Z,0.30
2023-04-24T01:29:25.525Z,0.52
2023-04-24T01:31:52.547Z,0.40
2023-04-24T01:34:19.706Z,0.40
2023-04-24T01:36:47.603Z,0.30
2023-04-24T01:39:14.602Z,0.40
2023-04-24T01:41:41.505Z,0.32
2023-04-24T01:44:08.595Z,0.40
2023-04-24T01:46:36.849Z,0.60
2023-04-24T01:49:04.773Z,0.40
2023-04-24T01:55:31.165Z,0.60
2023-04-24T01:57:58.185Z,0.50
2023-04-24T02:00:25.873Z,0.35
2023-04-24T02:02:53.827Z,0.30
2023-04-24T02:05:20.864Z,0.30
2023-04-24T02:07:47.719Z,0.47
2023-04-24T02:10:14.426Z,0.20
2023-04-24T02:12:44.136Z,0.30
2023-04-24T02:15:11.676Z,0.30
2023-04-24T02:17:38.796Z,0.45
2023-04-24T02:20:07.942Z,0.30
2023-04-24T02:22:34.831Z,0.30
2023-04-24T02:25:02.776Z,0.30
2023-04-24T02:27:29.738Z,0.32
2023-04-24T02:29:57.391Z,0.45
2023-04-24T02:32:24.088Z,0.40
2023-04-24T02:34:50.953Z,0.55
2023-04-24T02:37:17.721Z,0.45
2023-04-24T02:39:44.963Z,0.38
2023-04-24T02:42:11.824Z,0.50
2023-04-24T02:44:38.608Z,0.40
2023-04-24T02:47:05.380Z,0.65
2023-04-24T02:49:32.186Z,0.55
2023-04-24T02:51:58.872Z,0.45
2023-04-24T02:54:25.947Z,0.80
2023-04-24T02:56:52.650Z,0.52
2023-04-24T02:59:19.506Z,0.60
2023-04-24T03:01:46.328Z,0.40
2023-04-24T03:04:13.320Z,0.30
2023-04-24T03:06:40.180Z,0.38
2023-04-24T03:09:07.200Z,0.40
2023-04-24T03:11:33.944Z,0.57
2023-04-24T03:14:01.076Z,0.32
2023-04-24T03:16:27.914Z,0.40
2023-04-24T03:18:55.926Z,0.50
2023-04-24T03:21:25.277Z,0.30
2023-04-24T03:23:52.058Z,0.30
2023-04-24T03:26:19.311Z,0.35
2023-04-24T03:28:59.311Z,0.65
2023-04-24T03:31:26.209Z,0.30
2023-04-24T03:33:52.954Z,0.68
2023-04-24T03:36:20.443Z,0.80
2023-04-24T03:38:47.172Z,0.80
2023-04-24T03:41:33.012Z,0.30
2023-04-24T03:44:09.994Z,0.43
2023-04-24T03:46:37.283Z,0.60
2023-04-24T03:49:04.180Z,0.30
2023-04-24T03:51:34.941Z,0.70
2023-04-24T03:54:21.387Z,0.30
2023-04-24T03:56:49.729Z,0.40
2023-04-24T03:59:17.008Z,0.40
2023-04-24T04:01:48.315Z,0.28
2023-04-24T04:04:17.223Z,0.32
2023-04-24T04:06:45.495Z,0.40
2023-04-24T04:09:12.571Z,0.50
2023-04-24T04:11:39.346Z,0.47
2023-04-24T04:14:06.416Z,0.40
2023-04-24T04:16:35.200Z,0.70
2023-04-24T04:19:04.232Z,0.40
2023-04-24T04:21:32.410Z,1.13
2023-04-24T04:24:10.935Z,0.60
2023-04-24T04:26:42.335Z,0.30
2023-04-24T04:29:11.247Z,0.68
2023-04-24T04:31:42.073Z,0.32
2023-04-24T04:34:13.695Z,0.43
2023-04-24T04:36:42.300Z,0.40
2023-04-24T04:39:22.263Z,0.40
2023-04-24T04:42:04.827Z,0.32
2023-04-24T04:44:37.707Z,0.65
2023-04-24T04:47:06.704Z,0.30
2023-04-24T04:49:36.340Z,0.40
2023-04-24T04:52:49.061Z,0.43
2023-04-24T04:55:27.023Z,0.30
2023-04-24T04:58:26.371Z,0.50
2023-04-24T05:00:58.553Z,0.20
2023-04-24T05:03:33.333Z,0.57
2023-04-24T05:06:05.428Z,0.47
2023-04-24T05:08:35.682Z,0.40
2023-04-24T05:11:03.770Z,0.60
2023-04-24T05:13:40.698Z,0.52
2023-04-24T05:16:33.976Z,0.63
2023-04-24T05:19:01.474Z,0.90
2023-04-24T05:21:33.944Z,0.52
2023-04-24T05:24:01.102Z,0.80
2023-04-24T05:26:58.327Z,0.73
2023-04-24T05:29:32.320Z,1.13
2023-04-24T05:31:59.317Z,0.82
2023-04-24T05:34:27.055Z,0.60
2023-04-24T05:36:57.006Z,0.50
2023-04-24T05:39:26.053Z,0.88
2023-04-24T05:42:14.875Z,0.60
2023-04-24T05:45:33.649Z,0.95
2023-04-24T05:48:01.050Z,1.08
2023-04-24T05:50:28.171Z,0.98
2023-04-24T05:52:55.004Z,0.47
2023-04-24T05:55:26.909Z,0.75
2023-04-24T05:58:10.448Z,0.40
2023-04-24T06:00:45.921Z,0.70
2023-04-24T06:03:16.014Z,0.60
2023-04-24T06:05:46.509Z,1.00
2023-04-24T06:11:05.574Z,0.50
2023-04-24T06:13:50.850Z,0.50
2023-04-24T06:16:39.955Z,0.70
2023-04-24T06:19:16.967Z,0.55
2023-04-24T06:21:44.117Z,0.60
2023-04-24T06:24:11.776Z,0.70
2023-04-24T06:26:38.742Z,1.00
2023-04-24T06:29:08.512Z,0.57
2023-04-24T06:31:38.376Z,0.47
2023-04-24T06:34:05.615Z,0.65
2023-04-24T06:36:35.863Z,1.10
2023-04-24T06:39:03.703Z,0.50
2023-04-24T06:41:30.929Z,0.60
2023-04-24T06:43:58.399Z,0.40
2023-04-24T06:46:27.452Z,0.40
2023-04-24T06:48:57.598Z,0.73
2023-04-24T06:51:25.193Z,0.90
2023-04-24T06:53:53.593Z,1.02
2023-04-24T06:56:21.441Z,0.70
2023-04-24T06:58:48.931Z,0.70
2023-04-24T07:01:15.981Z,0.88
2023-04-24T07:03:43.519Z,0.82
2023-04-24T07:06:12.003Z,1.00
2023-04-24T07:08:38.762Z,0.60
2023-04-24T07:11:06.659Z,0.60
2023-04-24T07:13:33.529Z,0.93
2023-04-24T07:16:00.450Z,1.13
2023-04-24T07:18:27.480Z,1.25
2023-04-24T07:20:54.211Z,1.45
2023-04-24T07:23:21.255Z,0.80
2023-04-24T07:25:48.244Z,0.90
2023-04-24T07:28:15.284Z,1.20
2023-04-24T07:30:42.042Z,0.90
2023-04-24T07:33:09.409Z,1.30
2023-04-24T07:35:37.666Z,1.33
2023-04-24T07:38:04.352Z,0.90
2023-04-24T07:40:31.110Z,0.98
2023-04-24T07:42:58.432Z,1.02
2023-04-24T07:45:27.170Z,0.98
2023-04-24T07:47:54.122Z,1.00
2023-04-24T07:50:21.626Z,1.02
2023-04-24T07:52:48.686Z,1.10
2023-04-24T07:55:15.574Z,0.90
2023-04-24T07:57:42.405Z,0.80
2023-04-24T08:00:09.720Z,0.80
2023-04-24T08:02:39.698Z,0.88
2023-04-24T08:05:07.681Z,0.90
2023-04-24T08:07:36.391Z,1.27
2023-04-24T08:10:03.680Z,0.75
2023-04-24T08:12:30.802Z,0.80
2023-04-24T08:14:57.889Z,0.90
2023-04-24T08:17:25.419Z,0.73
2023-04-24T08:19:54.196Z,0.70
2023-04-24T08:22:21.137Z,0.70
2023-04-24T08:24:48.060Z,0.73
2023-04-24T08:27:14.838Z,0.70
2023-04-24T08:29:41.939Z,0.63
2023-04-24T08:32:09.124Z,0.70
2023-04-24T08:34:35.997Z,1.00
2023-04-24T08:37:03.690Z,0.90
2023-04-24T08:39:30.656Z,0.90
2023-04-24T08:41:57.583Z,0.80
2023-04-24T08:44:24.592Z,0.65
2023-04-24T08:46:52.658Z,0.70
2023-04-24T08:49:20.162Z,0.80
2023-04-24T08:51:48.778Z,0.88
2023-04-24T08:54:16.150Z,1.00
2023-04-24T08:56:45.943Z,1.02
2023-04-24T08:59:14.011Z,0.90
2023-04-24T09:01:42.301Z,0.88
2023-04-24T09:04:15.964Z,0.70
2023-04-24T09:06:46.071Z,1.10
2023-04-24T09:09:13.070Z,1.15
2023-04-24T09:11:40.009Z,0.98
2023-04-24T09:14:07.886Z,0.95
2023-04-24T09:16:36.616Z,0.80
2023-04-24T09:19:04.576Z,1.17
2023-04-24T09:21:36.694Z,1.42
2023-04-24T09:24:06.598Z,0.52
2023-04-24T09:26:35.938Z,0.77
2023-04-24T09:29:05.119Z,0.88
2023-04-24T09:31:32.331Z,0.90
2023-04-24T09:34:02.041Z,0.95
2023-04-24T09:36:34.331Z,0.95
2023-04-24T09:39:10.780Z,0.75
2023-04-24T09:41:51.997Z,0.50
2023-04-24T09:44:19.148Z,0.70
2023-04-24T09:46:50.855Z,1.15
2023-04-24T09:49:22.837Z,0.63
2023-04-24T09:51:49.817Z,0.65
2023-04-24T09:54:19.693Z,0.70
2023-04-24T09:56:48.765Z,0.80
2023-04-24T09:59:17.057Z,0.90
2023-04-24T10:01:45.775Z,0.98
2023-04-24T10:04:33.331Z,0.77
2023-04-24T10:07:02.229Z,1.15
2023-04-24T10:09:29.405Z,0.80
2023-04-24T10:11:56.770Z,0.82
2023-04-24T10:14:25.915Z,0.90
2023-04-24T10:16:56.176Z,0.90
2023-04-24T10:19:27.107Z,0.80
2023-04-24T10:21:55.934Z,0.80
2023-04-24T10:24:22.842Z,0.82
2023-04-24T10:26:50.178Z,0.70
2023-04-24T10:29:20.081Z,0.70
2023-04-24T10:31:48.130Z,0.63
2023-04-24T10:34:17.817Z,0.63
2023-04-24T10:36:49.600Z,0.90
2023-04-24T10:39:17.848Z,1.08
2023-04-24T10:41:44.932Z,0.80
2023-04-24T10:44:14.814Z,1.02
2023-04-24T10:46:47.354Z,0.70
2023-04-24T10:49:14.676Z,0.95
2023-04-24T10:51:50.286Z,0.70
2023-04-24T10:54:45.487Z,0.73
2023-04-24T10:57:24.558Z,0.68
2023-04-24T11:00:10.871Z,0.63
2023-04-24T11:02:39.643Z,0.70
2023-04-24T11:05:07.741Z,0.82
2023-04-24T11:08:14.646Z,0.60
2023-04-24T11:10:46.078Z,0.63
2023-04-24T11:13:17.187Z,0.32
2023-04-24T11:15:44.348Z,0.50
2023-04-24T11:18:16.520Z,0.50
2023-04-24T11:20:45.461Z,0.47
2023-04-24T11:23:14.221Z,0.60
2023-04-24T11:25:42.861Z,1.00
2023-04-24T11:28:17.510Z,0.60
2023-04-24T11:30:47.830Z,0.88
2023-04-24T11:33:21.775Z,0.82
2023-04-24T11:38:24.595Z,0.68
2023-04-24T11:43:20.888Z,0.90
2023-04-24T11:45:51.198Z,1.10
2023-04-24T11:48:23.677Z,1.10
2023-04-24T11:50:51.717Z,0.85
2023-04-24T11:53:22.699Z,1.10
2023-04-24T11:55:55.207Z,0.60
2023-04-24T11:58:23.799Z,0.97
2023-04-24T12:00:59.297Z,1.05
2023-04-24T12:03:28.730Z,0.77
2023-04-24T12:06:09.556Z,0.73
2023-04-24T12:08:38.287Z,0.75
2023-04-24T12:11:10.531Z,0.60
2023-04-24T12:13:37.604Z,0.85
2023-04-24T12:16:06.590Z,0.95
2023-04-24T12:18:33.621Z,1.10
2023-04-24T12:21:23.743Z,1.00
2023-04-24T12:23:52.021Z,0.70
2023-04-24T12:26:20.664Z,0.60
2023-04-24T12:28:50.337Z,0.60
2023-04-24T12:31:18.282Z,0.68
2023-04-24T12:33:45.310Z,0.70
2023-04-24T12:36:13.458Z,0.95
2023-04-24T12:38:45.484Z,0.57
2023-04-24T12:41:14.471Z,0.80
2023-04-24T12:43:55.864Z,0.77
2023-04-24T12:46:22.974Z,0.90
2023-04-24T12:48:50.070Z,1.40
2023-04-24T12:51:16.925Z,0.85
2023-04-24T12:53:44.036Z,0.55
2023-04-24T12:56:11.161Z,0.65
2023-04-24T12:58:40.916Z,0.70
2023-04-24T13:01:07.744Z,0.40
2023-04-24T13:03:34.735Z,0.47
2023-04-24T13:06:01.752Z,0.30
2023-04-24T13:08:28.640Z,0.32
2023-04-24T13:10:55.579Z,0.40
2023-04-24T13:13:22.458Z,0.70
2023-04-24T13:15:49.481Z,0.65
2023-04-24T13:18:16.922Z,0.57
2023-04-24T13:20:45.218Z,0.40
2023-04-24T13:23:12.337Z,0.60
2023-04-24T13:25:40.253Z,0.75
2023-04-24T13:28:11.899Z,0.65
2023-04-24T13:30:38.676Z,0.70
2023-04-24T13:33:05.558Z,0.50
2023-04-24T13:35:32.473Z,0.50
2023-04-24T13:37:59.562Z,0.80
2023-04-24T13:40:26.639Z,0.70
2023-04-24T13:42:53.464Z,0.82
2023-04-24T13:45:25.308Z,0.60
2023-04-24T13:47:52.985Z,0.50
2023-04-24T13:50:20.283Z,0.40
2023-04-24T13:52:47.141Z,0.77
2023-04-24T13:55:13.850Z,0.50
2023-04-24T13:57:40.746Z,0.50
2023-04-24T14:00:11.566Z,0.68
2023-04-24T14:02:39.012Z,0.30
2023-04-24T14:05:07.105Z,0.60
2023-04-24T14:07:33.922Z,0.32
2023-04-24T14:10:01.031Z,0.43
2023-04-24T14:12:28.268Z,1.48
2023-04-24T14:14:55.268Z,1.40
2023-04-24T14:17:22.559Z,0.50
2023-04-24T14:19:49.533Z,1.33
2023-04-24T14:22:16.421Z,1.13
2023-04-24T14:24:43.180Z,0.70
2023-04-24T14:27:09.972Z,0.90
2023-04-24T14:29:36.691Z,0.60
2023-04-24T14:32:03.477Z,0.88
2023-04-24T14:34:30.360Z,0.65
2023-04-24T14:36:57.162Z,0.73
2023-04-24T14:39:23.952Z,0.95
2023-04-24T14:41:50.977Z,1.00
2023-04-24T14:44:17.915Z,0.90
2023-04-24T14:46:44.802Z,1.00
2023-04-24T14:49:13.408Z,1.00
2023-04-24T14:51:40.357Z,0.88
2023-04-24T14:54:07.484Z,1.15
2023-04-24T14:56:34.302Z,0.60
2023-04-24T14:59:00.998Z,1.10
2023-04-24T15:01:27.822Z,0.95
2023-04-24T15:03:55.231Z,1.27
2023-04-24T15:06:22.120Z,1.13
2023-04-24T15:08:50.526Z,1.42
2023-04-24T15:11:18.453Z,1.70
2023-04-24T15:13:49.408Z,1.75
2023-04-24T15:16:16.686Z,1.98
2023-04-24T15:18:43.723Z,1.52
2023-04-24T15:21:11.004Z,1.52
2023-04-24T15:23:37.691Z,1.85
2023-04-24T15:26:07.585Z,1.83
2023-04-24T15:28:34.435Z,1.95
2023-04-24T15:31:01.347Z,2.20
2023-04-24T15:33:28.179Z,1.77
2023-04-24T15:35:59.009Z,1.60
2023-04-24T15:38:27.441Z,2.13
2023-04-24T15:40:54.274Z,1.80
2023-04-24T15:43:21.198Z,1.88
2023-04-24T15:45:48.076Z,1.70
2023-04-24T15:48:14.907Z,1.77
2023-04-24T15:50:41.849Z,2.10
2023-04-24T15:53:08.807Z,2.10
2023-04-24T15:55:35.798Z,2.15
2023-04-24T15:58:02.893Z,2.15
2023-04-24T16:00:34.276Z,2.63
2023-04-24T16:03:02.234Z,2.63
2023-04-24T16:05:29.388Z,2.60
2023-04-24T16:07:56.246Z,2.20
2023-04-24T16:10:23.139Z,1.83
2023-04-24T16:12:51.747Z,2.08
2023-04-24T16:15:18.750Z,2.10
2023-04-24T16:17:46.004Z,2.72
2023-04-24T16:20:14.451Z,1.92
2023-04-24T16:22:41.407Z,2.42
2023-04-24T16:25:09.328Z,1.85
2023-04-24T16:27:36.676Z,2.28
2023-04-24T16:30:04.156Z,10.85
2023-04-24T16:32:31.113Z,15.32
2023-04-24T16:34:57.820Z,5.90
2023-04-24T16:37:25.072Z,4.00
2023-04-24T16:39:51.927Z,2.47
2023-04-24T16:42:18.885Z,1.85
2023-04-24T16:44:47.048Z,2.15
2023-04-24T16:47:17.331Z,2.30
2023-04-24T16:49:44.176Z,1.70
2023-04-24T16:53:03.688Z,2.55
2023-04-24T16:55:30.823Z,2.83
2023-04-24T16:58:27.951Z,2.83
2023-04-24T17:00:47.281Z,2.63
2023-04-24T17:03:25.023Z,3.08
2023-04-24T17:05:52.069Z,2.10
2023-04-24T17:08:18.861Z,2.22
2023-04-24T17:10:45.727Z,2.17
2023-04-24T17:13:14.465Z,2.50
2023-04-24T17:15:42.619Z,1.90
2023-04-24T17:18:09.496Z,2.40
2023-04-24T17:20:36.265Z,2.28
2023-04-24T17:23:02.996Z,2.03
2023-04-24T17:25:30.178Z,2.22
2023-04-24T17:27:57.850Z,2.28
2023-04-24T17:30:24.854Z,2.47
2023-04-24T17:32:51.644Z,2.00
2023-04-24T17:35:18.957Z,2.30
2023-04-24T17:37:46.839Z,2.80
2023-04-24T17:40:13.702Z,2.70
2023-04-24T17:42:41.705Z,5.97
2023-04-24T17:45:09.103Z,7.32
2023-04-24T17:47:35.925Z,5.22
2023-04-24T17:50:03.129Z,4.40
2023-04-24T17:52:31.484Z,3.55
2023-04-24T17:54:58.357Z,3.55
2023-04-24T17:57:25.982Z,2.60
2023-04-24T17:59:53.523Z,4.40
2023-04-24T18:02:20.999Z,5.95
2023-04-24T18:04:48.122Z,6.95
2023-04-24T18:07:15.200Z,6.03
2023-04-24T18:09:42.074Z,2.75
2023-04-24T18:12:09.395Z,3.22
2023-04-24T18:14:36.300Z,2.85
2023-04-24T18:17:03.526Z,2.80
2023-04-24T18:19:30.466Z,2.47
2023-04-24T18:21:58.108Z,6.28
2023-04-24T18:24:24.893Z,4.75
2023-04-24T18:26:53.995Z,4.40
2023-04-24T18:29:21.293Z,3.92
2023-04-24T18:31:53.231Z,3.10
2023-04-24T18:34:20.256Z,4.43
2023-04-24T18:36:47.124Z,4.20
2023-04-24T18:39:14.280Z,4.20
2023-04-24T18:41:41.276Z,4.22
2023-04-24T18:44:09.316Z,3.00
2023-04-24T18:46:41.641Z,5.07
2023-04-24T18:49:08.744Z,5.13
2023-04-24T18:51:46.562Z,5.28
2023-04-24T18:54:17.368Z,3.53
2023-04-24T18:56:44.606Z,3.60
2023-04-24T18:59:11.392Z,3.42
2023-04-24T19:01:39.620Z,3.95
2023-04-24T19:04:06.684Z,4.25
2023-04-24T19:06:33.565Z,4.78
2023-04-24T19:09:00.450Z,8.80
2023-04-24T19:11:27.537Z,6.65
2023-04-24T19:13:54.382Z,3.88
2023-04-24T19:16:21.514Z,3.03
2023-04-24T19:18:48.597Z,4.88
2023-04-24T19:21:15.761Z,6.18
2023-04-24T19:23:43.715Z,6.15
2023-04-24T19:26:11.693Z,3.95
2023-04-24T19:28:39.174Z,3.75
2023-04-24T19:31:06.154Z,4.43
2023-04-24T19:33:33.027Z,3.72
2023-04-24T19:36:00.345Z,2.55
2023-04-24T19:38:27.621Z,2.50
2023-04-24T19:40:54.515Z,2.42
2023-04-24T19:43:21.375Z,2.15
2023-04-24T19:45:48.399Z,2.42
2023-04-24T19:48:15.430Z,1.70
2023-04-24T19:50:44.392Z,2.03
2023-04-24T19:53:12.377Z,1.80
2023-04-24T19:55:40.415Z,2.00
2023-04-24T19:58:07.450Z,1.83
2023-04-24T20:00:35.387Z,1.70
2023-04-24T20:03:03.181Z,1.80
2023-04-24T20:05:30.371Z,1.60
2023-04-24T20:07:57.154Z,1.95
2023-04-24T20:10:24.316Z,1.40
2023-04-24T20:12:51.344Z,1.67
2023-04-24T20:15:18.339Z,2.20
2023-04-24T20:17:45.687Z,2.35
2023-04-24T20:20:12.785Z,2.00
2023-04-24T20:22:39.869Z,2.10
2023-04-24T20:25:11.579Z,2.10
2023-04-24T20:27:38.526Z,1.83
2023-04-24T20:30:06.444Z,2.50
2023-04-24T20:32:33.337Z,2.20
2023-04-24T20:35:00.269Z,1.80
2023-04-24T20:37:27.082Z,1.60
2023-04-24T20:39:53.843Z,2.15
2023-04-24T20:42:20.924Z,1.80
2023-04-24T20:44:48.786Z,1.88
2023-04-24T20:47:16.088Z,2.60
2023-04-24T20:49:42.918Z,2.30
2023-04-24T20:52:09.729Z,1.80
2023-04-24T20:54:36.507Z,2.65
2023-04-24T20:57:03.903Z,2.15
2023-04-24T20:59:30.844Z,2.20
2023-04-24T21:01:57.683Z,2.47
2023-04-24T21:04:24.779Z,2.08
2023-04-24T21:06:51.772Z,2.20
2023-04-24T21:09:18.773Z,2.22
2023-04-24T21:11:45.560Z,2.50
2023-04-24T21:14:12.378Z,2.22
2023-04-24T21:16:40.066Z,2.10
2023-04-24T21:19:06.998Z,2.42
2023-04-24T21:21:34.127Z,2.70
2023-04-24T21:24:01.928Z,2.67
2023-04-24T21:26:28.766Z,2.55
2023-04-24T21:28:55.607Z,2.92
2023-04-24T21:31:22.583Z,2.63
2023-04-24T21:33:50.008Z,2.90
2023-04-24T21:37:20.111Z,2.75
2023-04-24T21:39:46.982Z,3.33
2023-04-24T21:42:14.196Z,2.88
2023-04-24T21:44:41.094Z,2.42
2023-04-24T21:47:08.023Z,2.58
2023-04-24T21:49:34.841Z,2.03
2023-04-24T21:52:01.632Z,2.53
2023-04-24T21:54:28.497Z,3.05
2023-04-24T21:56:55.604Z,2.60
2023-04-24T21:59:22.320Z,2.50
2023-04-24T22:01:49.160Z,2.40
2023-04-24T22:04:16.238Z,2.72
2023-04-24T22:06:43.108Z,2.67
2023-04-24T22:09:10.998Z,2.67
2023-04-24T22:11:38.249Z,2.67
2023-04-24T22:14:07.243Z,3.03
2023-04-24T22:16:34.695Z,3.10
2023-04-24T22:19:01.563Z,2.97
2023-04-24T22:21:28.656Z,2.47
2023-04-24T22:24:23.746Z,2.42
2023-04-24T22:26:51.986Z,2.50
2023-04-24T22:29:18.892Z,2.63
2023-04-24T22:31:45.891Z,3.15
2023-04-24T22:34:12.746Z,2.38
2023-04-24T22:36:39.600Z,2.38
2023-04-24T22:39:06.550Z,2.63
2023-04-24T22:41:33.508Z,2.75
2023-04-24T22:44:00.333Z,3.20
2023-04-24T22:46:27.588Z,2.95
2023-04-24T22:48:54.492Z,2.75
2023-04-24T22:51:21.439Z,3.20
2023-04-24T22:53:49.762Z,2.92
2023-04-24T22:56:17.429Z,3.00
2023-04-24T22:58:44.313Z,3.47
2023-04-24T23:01:11.299Z,3.08
2023-04-24T23:03:38.308Z,2.85
2023-04-24T23:06:05.472Z,2.90
2023-04-24T23:08:32.568Z,3.33
2023-04-24T23:10:59.804Z,2.95
2023-04-24T23:13:27.382Z,3.10
2023-04-24T23:15:54.824Z,2.97
2023-04-24T23:18:22.098Z,2.92
2023-04-24T23:20:49.072Z,3.28
2023-04-24T23:23:16.712Z,3.05
2023-04-24T23:25:43.661Z,3.28
2023-04-24T23:28:10.510Z,2.78
2023-04-24T23:30:37.483Z,3.28
2023-04-24T23:33:05.003Z,4.05
2023-04-24T23:35:32.020Z,3.67
2023-04-24T23:37:58.824Z,3.80
2023-04-24T23:40:25.647Z,3.45
2023-04-24T23:43:05.638Z,3.58
2023-04-24T23:45:34.491Z,3.50
2023-04-24T23:48:01.562Z,3.60
2023-04-24T23:50:28.962Z,4.47
2023-04-24T23:52:56.070Z,3.72
2023-04-24T23:55:22.836Z,4.15
2023-04-24T23:57:49.714Z,4.13
